地図

経路データ

SID SEASON NUMBER BASIN SUBBASIN NAME ISO_TIME NATURE LAT LON WMO_WIND WMO_PRES WMO_AGENCY TRACK_TYPE DIST2LAND LANDFALL IFLAG USA_AGENCY USA_ATCF_ID USA_LAT USA_LON USA_RECORD USA_STATUS USA_WIND USA_PRES USA_SSHS USA_R34_NE USA_R34_SE USA_R34_SW USA_R34_NW USA_R50_NE USA_R50_SE USA_R50_SW USA_R50_NW USA_R64_NE USA_R64_SE USA_R64_SW USA_R64_NW USA_POCI USA_ROCI USA_RMW USA_EYE TOKYO_LAT TOKYO_LON TOKYO_GRADE TOKYO_WIND TOKYO_PRES TOKYO_R50_DIR TOKYO_R50_LONG TOKYO_R50_SHORT TOKYO_R30_DIR TOKYO_R30_LONG TOKYO_R30_SHORT TOKYO_LAND CMA_LAT CMA_LON CMA_CAT CMA_WIND CMA_PRES HKO_LAT HKO_LON HKO_CAT HKO_WIND HKO_PRES NEWDELHI_LAT NEWDELHI_LON NEWDELHI_GRADE NEWDELHI_WIND NEWDELHI_PRES NEWDELHI_CI NEWDELHI_DP NEWDELHI_POCI REUNION_LAT REUNION_LON REUNION_TYPE REUNION_WIND REUNION_PRES REUNION_TNUM REUNION_CI REUNION_RMW REUNION_R34_NE REUNION_R34_SE REUNION_R34_SW REUNION_R34_NW REUNION_R50_NE REUNION_R50_SE REUNION_R50_SW REUNION_R50_NW REUNION_R64_NE REUNION_R64_SE REUNION_R64_SW REUNION_R64_NW BOM_LAT BOM_LON BOM_TYPE BOM_WIND BOM_PRES BOM_TNUM BOM_CI BOM_RMW BOM_R34_NE BOM_R34_SE BOM_R34_SW BOM_R34_NW BOM_R50_NE BOM_R50_SE BOM_R50_SW BOM_R50_NW BOM_R64_NE BOM_R64_SE BOM_R64_SW BOM_R64_NW BOM_ROCI BOM_POCI BOM_EYE BOM_POS_METHOD BOM_PRES_METHOD NADI_LAT NADI_LON NADI_CAT NADI_WIND NADI_PRES WELLINGTON_LAT WELLINGTON_LON WELLINGTON_WIND WELLINGTON_PRES DS824_LAT DS824_LON DS824_STAGE DS824_WIND DS824_PRES TD9636_LAT TD9636_LON TD9636_STAGE TD9636_WIND TD9636_PRES TD9635_LAT TD9635_LON TD9635_WIND TD9635_PRES TD9635_ROCI NEUMANN_LAT NEUMANN_LON NEUMANN_CLASS NEUMANN_WIND NEUMANN_PRES MLC_LAT MLC_LON MLC_CLASS MLC_WIND MLC_PRES USA_GUST BOM_GUST BOM_GUST_PER REUNION_GUST REUNION_GUST_PER USA_SEAHGT USA_SEARAD_NE USA_SEARAD_SE USA_SEARAD_SW USA_SEARAD_NW STORM_SPEED STORM_DIR
1885208N21139 1885 31 WP MM NOT_NAMED 1885-07-26 16:00:00 NR 21.1000 138.900 main 1370 1365 __________O___ -1 21.1000 138.900 4 3 280
1885208N21139 1885 31 WP MM NOT_NAMED 1885-07-26 18:00:00 NR 21.1167 138.794 main 1365 1354 __________P___ -1 21.1167 138.794 4 3 279
1885208N21139 1885 31 WP MM NOT_NAMED 1885-07-26 21:00:00 NR 21.1418 138.631 main 1354 1339 __________P___ -1 21.1418 138.631 4 3 279
1885208N21139 1885 31 WP MM NOT_NAMED 1885-07-27 00:00:00 NR 21.1667 138.458 main 1339 1329 __________P___ -1 21.1667 138.458 4 3 278
1885208N21139 1885 31 WP MM NOT_NAMED 1885-07-27 03:00:00 NR 21.1917 138.268 main 1329 1324 __________P___ -1 21.1917 138.268 4 4 278
1885208N21139 1885 31 WP MM NOT_NAMED 1885-07-27 04:00:00 NR 21.2000 138.200 main 1324 1319 __________O___ -1 21.2000 138.200 4 4 277
1885208N21139 1885 31 WP MM NOT_NAMED 1885-07-27 06:00:00 NR 21.2166 138.056 main 1319 1303 __________P___ -1 21.2166 138.056 4 4 277
1885208N21139 1885 31 WP MM NOT_NAMED 1885-07-27 09:00:00 NR 21.2416 137.820 main 1303 1282 __________P___ -1 21.2416 137.820 4 5 276
1885208N21139 1885 31 WP MM NOT_NAMED 1885-07-27 12:00:00 NR 21.2665 137.565 main 1282 1266 __________P___ -1 21.2665 137.565 4 5 276
1885208N21139 1885 31 WP MM NOT_NAMED 1885-07-27 15:00:00 NR 21.2916 137.294 main 1266 1261 __________P___ -1 21.2916 137.294 4 5 276
1885208N21139 1885 31 WP MM NOT_NAMED 1885-07-27 16:00:00 NR 21.3000 137.200 main 1261 1251 __________O___ -1 21.3000 137.200 4 5 276
1885208N21139 1885 31 WP MM NOT_NAMED 1885-07-27 18:00:00 NR 21.3192 137.014 main 1251 1237 __________P___ -1 21.3192 137.014 4 5 276
1885208N21139 1885 31 WP MM NOT_NAMED 1885-07-27 21:00:00 NR 21.3481 136.723 main 1237 1212 __________P___ -1 21.3481 136.723 4 6 276
1885208N21139 1885 31 WP MM NOT_NAMED 1885-07-28 00:00:00 NR 21.3744 136.419 main 1212 1199 __________P___ -1 21.3744 136.419 4 6 275
1885208N21139 1885 31 WP MM NOT_NAMED 1885-07-28 03:00:00 NR 21.3950 136.106 main 1199 1194 __________P___ -1 21.3950 136.106 4 6 274
1885208N21139 1885 31 WP MM NOT_NAMED 1885-07-28 04:00:00 NR 21.4000 136.000 main 1194 1186 __________O___ -1 21.4000 136.000 4 6 271
1885208N21139 1885 31 WP MM NOT_NAMED 1885-07-28 06:00:00 NR 21.4003 135.792 main 1186 1173 __________P___ -1 21.4003 135.792 4 6 269
1885208N21139 1885 31 WP MM NOT_NAMED 1885-07-28 09:00:00 NR 21.3945 135.473 main 1173 1158 __________P___ -1 21.3945 135.473 4 6 269
1885208N21139 1885 31 WP MM NOT_NAMED 1885-07-28 12:00:00 NR 21.3894 135.146 main 1158 1147 __________P___ -1 21.3894 135.146 4 6 270
1885208N21139 1885 31 WP MM NOT_NAMED 1885-07-28 15:00:00 NR 21.3944 134.813 main 1147 1143 __________P___ -1 21.3944 134.813 4 6 271
1885208N21139 1885 31 WP MM NOT_NAMED 1885-07-28 16:00:00 NR 21.4000 134.700 main 1143 1136 __________O___ -1 21.4000 134.700 4 6 275
1885208N21139 1885 31 WP MM NOT_NAMED 1885-07-28 18:00:00 NR 21.4216 134.486 main 1136 1116 __________P___ -1 21.4216 134.486 4 6 278
1885208N21139 1885 31 WP MM NOT_NAMED 1885-07-28 21:00:00 NR 21.4667 134.158 main 1116 1104 __________P___ -1 21.4667 134.158 4 6 279
1885208N21139 1885 31 WP MM NOT_NAMED 1885-07-29 00:00:00 NR 21.5218 133.812 main 1104 1083 __________P___ -1 21.5218 133.812 4 7 280
1885208N21139 1885 31 WP MM NOT_NAMED 1885-07-29 03:00:00 NR 21.5806 133.435 main 1083 1081 __________P___ -1 21.5806 133.435 4 7 279
1885208N21139 1885 31 WP MM NOT_NAMED 1885-07-29 04:00:00 NR 21.6000 133.300 main 1081 1074 __________O___ -1 21.6000 133.300 4 8 277
1885208N21139 1885 31 WP MM NOT_NAMED 1885-07-29 06:00:00 NR 21.6255 133.012 main 1074 1054 __________P___ -1 21.6255 133.012 4 8 275
1885208N21139 1885 31 WP MM NOT_NAMED 1885-07-29 09:00:00 NR 21.6635 132.548 main 1054 1048 __________P___ -1 21.6635 132.548 4 9 275
1885208N21139 1885 31 WP MM NOT_NAMED 1885-07-29 12:00:00 NR 21.7096 132.060 main 1048 1031 __________P___ -1 21.7096 132.060 4 9 277
1885208N21139 1885 31 WP MM NOT_NAMED 1885-07-29 15:00:00 NR 21.7732 131.564 main 1031 1016 __________P___ -1 21.7732 131.564 4 9 278
1885208N21139 1885 31 WP MM NOT_NAMED 1885-07-29 16:00:00 NR 21.8000 131.400 main 1016 983 __________O___ -1 21.8000 131.400 4 9 282
1885208N21139 1885 31 WP MM NOT_NAMED 1885-07-29 18:00:00 NR 21.8661 131.076 main 983 931 __________P___ -1 21.8661 131.076 4 9 284
1885208N21139 1885 31 WP MM NOT_NAMED 1885-07-29 21:00:00 NR 21.9842 130.589 main 931 878 __________P___ -1 21.9842 130.589 4 9 286
1885208N21139 1885 31 WP MM NOT_NAMED 1885-07-30 00:00:00 NR 22.1169 130.110 main 878 822 __________P___ -1 22.1169 130.110 4 9 287
1885208N21139 1885 31 WP MM NOT_NAMED 1885-07-30 03:00:00 NR 22.2546 129.648 main 822 813 __________P___ -1 22.2546 129.648 4 9 288
1885208N21139 1885 31 WP MM NOT_NAMED 1885-07-30 04:00:00 NR 22.3000 129.500 main 813 780 __________O___ -1 22.3000 129.500 4 8 287
1885208N21139 1885 31 WP MM NOT_NAMED 1885-07-30 06:00:00 NR 22.3750 129.218 main 780 737 __________P___ -1 22.3750 129.218 4 8 287
1885208N21139 1885 31 WP MM NOT_NAMED 1885-07-30 09:00:00 NR 22.4876 128.815 main 737 695 __________P___ -1 22.4876 128.815 4 8 288
1885208N21139 1885 31 WP MM NOT_NAMED 1885-07-30 12:00:00 NR 22.6089 128.424 main 695 652 __________P___ -1 22.6089 128.424 4 8 290
1885208N21139 1885 31 WP MM NOT_NAMED 1885-07-30 15:00:00 NR 22.7480 128.033 main 652 639 __________P___ -1 22.7480 128.033 4 8 292
1885208N21139 1885 31 WP MM NOT_NAMED 1885-07-30 16:00:00 NR 22.8000 127.900 main 639 606 __________O___ -1 22.8000 127.900 4 8 293
1885208N21139 1885 31 WP MM NOT_NAMED 1885-07-30 18:00:00 NR 22.9110 127.612 main 606 561 __________P___ -1 22.9110 127.612 4 9 294
1885208N21139 1885 31 WP MM NOT_NAMED 1885-07-30 21:00:00 NR 23.0963 127.173 main 561 505 __________P___ -1 23.0963 127.173 4 9 296
1885208N21139 1885 31 WP MM NOT_NAMED 1885-07-31 00:00:00 NR 23.3013 126.740 main 505 460 __________P___ -1 23.3013 126.740 4 9 299
1885208N21139 1885 31 WP MM NOT_NAMED 1885-07-31 03:00:00 NR 23.5230 126.329 main 460 447 __________P___ -1 23.5230 126.329 4 9 301
1885208N21139 1885 31 WP MM NOT_NAMED 1885-07-31 04:00:00 NR 23.6000 126.200 main 447 423 __________O___ -1 23.6000 126.200 4 8 304
1885208N21139 1885 31 WP MM NOT_NAMED 1885-07-31 06:00:00 NR 23.7523 125.958 main 423 379 __________P___ -1 23.7523 125.958 4 8 307
1885208N21139 1885 31 WP MM NOT_NAMED 1885-07-31 09:00:00 NR 23.9935 125.619 main 379 345 __________P___ -1 23.9935 125.619 4 8 310
1885208N21139 1885 31 WP MM NOT_NAMED 1885-07-31 12:00:00 NR 24.2474 125.303 main 345 307 __________P___ -1 24.2474 125.303 4 8 312
1885208N21139 1885 31 WP MM NOT_NAMED 1885-07-31 15:00:00 NR 24.5107 125.000 main 307 295 __________P___ -1 24.5107 125.000 4 8 314
1885208N21139 1885 31 WP MM NOT_NAMED 1885-07-31 16:00:00 NR 24.6000 124.900 main 295 273 __________O___ -1 24.6000 124.900 4 8 313
1885208N21139 1885 31 WP MM NOT_NAMED 1885-07-31 18:00:00 NR 24.7856 124.671 main 273 231 __________P___ -1 24.7856 124.671 4 8 312
1885208N21139 1885 31 WP MM NOT_NAMED 1885-07-31 21:00:00 NR 25.0704 124.333 main 231 203 __________P___ -1 25.0704 124.333 4 8 314
1885208N21139 1885 31 WP MM NOT_NAMED 1885-08-01 00:00:00 NR 25.3518 124.024 main 205 189 __________P___ -1 25.3518 124.024 4 7 317
1885208N21139 1885 31 WP MM NOT_NAMED 1885-08-01 03:00:00 NR 25.6172 123.769 main 192 183 __________P___ -1 25.6172 123.769 4 7 320
1885208N21139 1885 31 WP MM NOT_NAMED 1885-08-01 04:00:00 NR 25.7000 123.700 main 187 183 __________O___ -1 25.7000 123.700 4 5 328
1885208N21139 1885 31 WP MM NOT_NAMED 1885-08-01 06:00:00 NR 25.8475 123.608 main 183 187 __________P___ -1 25.8475 123.608 4 5 337
1885208N21139 1885 31 WP MM NOT_NAMED 1885-08-01 09:00:00 NR 26.0500 123.528 main 194 194 __________P___ -1 26.0500 123.528 4 4 344
1885208N21139 1885 31 WP MM NOT_NAMED 1885-08-01 12:00:00 NR 26.2412 123.482 main 201 208 __________P___ -1 26.2412 123.482 4 4 347
1885208N21139 1885 31 WP MM NOT_NAMED 1885-08-01 15:00:00 NR 26.4335 123.427 main 210 210 __________P___ -1 26.4335 123.427 4 4 345
1885208N21139 1885 31 WP MM NOT_NAMED 1885-08-01 16:00:00 NR 26.5000 123.400 main 218 218 __________O___ -1 26.5000 123.400 4 4 336
1885208N21139 1885 31 WP MM NOT_NAMED 1885-08-01 18:00:00 NR 26.6384 123.326 main 221 221 __________P___ -1 26.6384 123.326 4 5 330
1885208N21139 1885 31 WP MM NOT_NAMED 1885-08-01 21:00:00 NR 26.8576 123.174 main 221 192 __________P___ -1 26.8576 123.174 4 5 326
1885208N21139 1885 31 WP MM NOT_NAMED 1885-08-02 00:00:00 NR 27.0867 122.984 main 192 162 __________P___ -1 27.0867 122.984 4 6 322
1885208N21139 1885 31 WP MM NOT_NAMED 1885-08-02 03:00:00 NR 27.3213 122.773 main 162 147 __________P___ -1 27.3213 122.773 4 6 321
1885208N21139 1885 31 WP MM NOT_NAMED 1885-08-02 04:00:00 NR 27.4000 122.700 main 147 __________O___ -1 27.4000 122.700 4 6 319

デジタル台風データ・検索

IBTrACS Databaseについて

本データベースは、米国NOAAが公開する1842年以降の世界の熱帯低気圧のベストトラックデータアーカイブInternational Best Track Archive for Climate Stewardship (IBTrACS)を、ウェブで閲覧しやすい形式に変換したものです。

最終更新日:2021-12-08